Time;durP1;ratioP1;P1;durP2;ratioP2;P2;SDS_P1;SDS_P2;PMS_P1;PMS_P2;Temp;Humidity;BMP_temperature;BMP_pressure;BME280_temperature;BME280_humidity;BME280_pressure;Samples;Min_cycle;Max_cycle;Signal;HPM_P1;HPM_P2
2022/02/01 00:01:24;;;;;;;20.48;3.60;;;;;;;4.75;94.21;99790.56;4899124;29;20202;-77
2022/02/01 00:03:55;;;;;;;11.00;3.80;;;;;;;4.76;93.90;99778.97;4901789;29;20238;-76
2022/02/01 00:06:27;;;;;;;10.05;3.55;;;;;;;4.79;94.15;99761.06;4912899;29;20221;-77
2022/02/01 00:09:04;;;;;;;10.95;4.32;;;;;;;4.76;95.09;99761.16;4919289;29;20206;-76
2022/02/01 00:11:39;;;;;;;12.65;3.13;;;;;;;4.81;96.00;99769.88;4902976;29;20220;-76
2022/02/01 00:14:16;;;;;;;16.65;4.10;;;;;;;4.73;96.88;99782.59;4914753;29;20280;-76
2022/02/01 00:17:06;;;;;;;18.60;3.85;;;;;;;4.69;98.10;99801.41;4905879;29;20232;-77
2022/02/01 00:33:56;;;;;;;9.82;3.53;;;;;;;4.59;100.00;99816.84;5088535;27;20552;-77
2022/02/01 00:36:29;;;;;;;11.13;3.00;;;;;;;4.55;100.00;99837.38;5082867;28;20211;-77
2022/02/01 00:39:00;;;;;;;16.95;3.47;;;;;;;4.56;100.00;99835.59;5088708;28;20187;-77
2022/02/01 00:41:30;;;;;;;7.20;2.92;;;;;;;4.57;100.00;99834.69;5083544;28;20190;-77
2022/02/01 00:43:57;;;;;;;12.48;3.70;;;;;;;4.46;100.00;99823.47;5088490;28;20184;-77
2022/02/01 00:46:23;;;;;;;14.25;3.80;;;;;;;4.42;100.00;99829.78;5088854;28;20195;-77
2022/02/01 00:48:51;;;;;;;9.40;4.18;;;;;;;4.44;100.00;99831.50;5088758;28;20191;-77
2022/02/01 00:51:18;;;;;;;10.43;3.38;;;;;;;4.35;100.00;99834.44;5088831;28;20274;-78
2022/02/01 00:53:45;;;;;;;7.97;2.95;;;;;;;4.35;100.00;99835.28;5089038;28;20617;-78
2022/02/01 00:56:14;;;;;;;18.73;3.65;;;;;;;4.39;100.00;99836.09;5088420;28;20277;-78
2022/02/01 00:58:40;;;;;;;6.07;2.75;;;;;;;4.28;100.00;99841.72;5089012;28;20275;-78
2022/02/01 01:01:07;;;;;;;12.75;3.17;;;;;;;4.28;100.00;99841.72;5088808;28;20718;-78
2022/02/01 01:03:34;;;;;;;13.60;3.70;;;;;;;4.27;100.00;99837.28;5088323;28;20190;-77
2022/02/01 01:06:02;;;;;;;15.65;3.67;;;;;;;4.23;100.00;99840.09;5088421;28;20190;-77
2022/02/01 01:08:29;;;;;;;10.45;3.10;;;;;;;4.13;100.00;99843.00;5088737;28;20287;-78
2022/02/01 01:10:55;;;;;;;10.90;3.38;;;;;;;4.13;100.00;99842.16;5088060;28;20196;-78
2022/02/01 01:13:48;;;;;;;11.68;3.75;;;;;;;4.14;100.00;99849.25;5087787;28;20233;-78
2022/02/01 01:16:28;;;;;;;13.73;3.35;;;;;;;4.20;100.00;99851.72;5082286;28;20199;-77
2022/02/01 01:38:43;;;;;;;11.90;4.18;;;;;;;4.09;100.00;99851.13;5088221;28;20199;-78
2022/02/01 01:43:54;;;;;;;12.30;2.83;;;;;;;4.14;96.75;99922.06;5079537;28;20237;-78
2022/02/01 01:54:39;;;;;;;10.30;3.35;;;;;;;4.03;98.63;99926.81;5073803;28;20552;-76
2022/02/01 01:57:06;;;;;;;11.68;3.55;;;;;;;4.05;98.14;99932.06;5073804;28;20691;-76
2022/02/01 01:59:34;;;;;;;11.40;3.70;;;;;;;3.99;98.13;99922.47;5073865;28;20660;-76
2022/02/01 02:02:00;;;;;;;8.50;3.20;;;;;;;4.06;97.60;99933.84;5074682;28;20213;-76
2022/02/01 02:04:27;;;;;;;8.02;2.83;;;;;;;3.94;98.81;99929.72;5073868;28;20199;-76
2022/02/01 02:06:54;;;;;;;9.45;3.30;;;;;;;3.88;100.00;99921.88;5074148;28;20304;-76
2022/02/01 02:09:21;;;;;;;11.18;3.28;;;;;;;3.95;100.00;99932.31;5073188;28;20592;-77
2022/02/01 02:11:54;;;;;;;16.08;3.88;;;;;;;3.79;100.00;99943.41;5073619;28;20675;-77
2022/02/01 02:14:21;;;;;;;12.23;4.05;;;;;;;3.79;100.00;99930.09;5073589;28;20198;-77
2022/02/01 02:16:50;;;;;;;15.60;3.67;;;;;;;3.75;100.00;99932.84;5073886;28;20592;-77
2022/02/01 02:19:17;;;;;;;11.68;4.50;;;;;;;3.84;100.00;99933.50;5073941;28;20195;-77
2022/02/01 02:21:51;;;;;;;13.80;4.85;;;;;;;3.80;100.00;99955.81;5073211;28;20189;-77
2022/02/01 02:24:18;;;;;;;11.50;4.50;;;;;;;3.76;100.00;99936.38;5073667;28;20651;-77
2022/02/01 02:26:46;;;;;;;10.73;4.22;;;;;;;3.72;100.00;99956.00;5069906;28;20195;-77
2022/02/01 02:29:13;;;;;;;7.22;4.13;;;;;;;3.77;100.00;99964.75;5073397;28;20292;-76
2022/02/01 02:31:40;;;;;;;11.75;4.70;;;;;;;3.81;100.00;99953.13;5073742;28;20663;-77
2022/02/01 02:34:10;;;;;;;15.43;3.85;;;;;;;3.78;100.00;99944.31;5073619;28;20237;-77
2022/02/01 02:36:43;;;;;;;13.25;3.30;;;;;;;3.78;100.00;99950.53;5073781;28;20196;-77
2022/02/01 02:39:22;;;;;;;10.05;3.25;;;;;;;3.76;100.00;99969.22;5073426;28;20190;-77
2022/02/01 02:41:53;;;;;;;11.38;3.60;;;;;;;3.83;100.00;99953.09;5071830;28;20562;-77
2022/02/01 02:47:06;;;;;;;9.48;4.30;;;;;;;3.94;100.00;99930.59;5072646;28;20658;-77
2022/02/01 02:49:34;;;;;;;12.05;3.50;;;;;;;3.82;100.00;99944.22;5072316;28;20240;-77
2022/02/01 02:52:00;;;;;;;13.23;4.25;;;;;;;3.79;100.00;99946.94;5072529;28;20214;-77
2022/02/01 02:54:29;;;;;;;10.13;3.33;;;;;;;3.80;100.00;99943.38;5072701;28;20197;-77
2022/02/01 02:56:58;;;;;;;10.88;3.80;;;;;;;3.84;100.00;99937.03;5072555;28;20708;-77
2022/02/01 02:59:27;;;;;;;8.70;3.67;;;;;;;3.81;100.00;99937.13;5072802;28;20292;-77
2022/02/01 03:01:54;;;;;;;10.55;3.72;;;;;;;3.87;100.00;99930.78;5073381;28;20190;-77
2022/02/01 03:04:24;;;;;;;14.52;4.07;;;;;;;3.94;100.00;99933.25;5072941;28;20557;-77
2022/02/01 03:06:52;;;;;;;7.82;3.50;;;;;;;3.79;100.00;99925.63;5072958;28;20243;-77
2022/02/01 03:09:20;;;;;;;13.88;3.90;;;;;;;3.87;100.00;99938.78;5072745;28;20303;-77
2022/02/01 03:11:49;;;;;;;13.98;3.60;;;;;;;3.87;100.00;99950.31;5071657;28;20199;-76
2022/02/01 03:14:24;;;;;;;14.32;4.38;;;;;;;3.86;100.00;99961.00;5072859;28;20182;-76
2022/02/01 03:17:02;;;;;;;13.27;4.05;;;;;;;3.80;100.00;99962.03;5073030;28;20195;-76
2022/02/01 03:19:49;;;;;;;10.23;3.92;;;;;;;3.83;100.00;99948.63;5065307;28;20625;-76
2022/02/01 03:22:16;;;;;;;10.20;4.25;;;;;;;3.80;100.00;99962.03;5071137;28;20250;-76
2022/02/01 03:24:43;;;;;;;12.38;3.60;;;;;;;3.76;100.00;99955.91;5072615;28;20190;-76
2022/02/01 03:27:11;;;;;;;13.18;4.13;;;;;;;3.85;100.00;99978.78;5072135;28;20280;-76
2022/02/01 03:29:38;;;;;;;10.98;5.15;;;;;;;3.83;100.00;99990.38;5072438;28;20200;-76
2022/02/01 03:32:05;;;;;;;11.35;4.50;;;;;;;3.81;100.00;99992.19;5071773;28;20675;-76
2022/02/01 03:34:32;;;;;;;9.15;3.83;;;;;;;3.94;99.62;99991.88;5072461;28;20193;-76
2022/02/01 03:36:58;;;;;;;16.45;5.32;;;;;;;3.86;100.00;100012.47;5071982;28;20199;-77
2022/02/01 03:39:25;;;;;;;10.52;4.18;;;;;;;4.00;100.00;100028.13;5072093;28;20282;-76
2022/02/01 03:41:52;;;;;;;7.85;3.35;;;;;;;3.89;100.00;100019.50;5071877;28;20659;-76
2022/02/01 03:44:21;;;;;;;9.68;4.13;;;;;;;4.07;100.00;100002.19;5072306;28;20640;-76
2022/02/01 03:46:59;;;;;;;8.75;4.00;;;;;;;4.02;100.00;99982.78;5072177;28;20270;-76
2022/02/01 03:49:25;;;;;;;6.95;3.17;;;;;;;3.77;100.00;99986.06;5071851;28;20512;-77
2022/02/01 03:51:52;;;;;;;8.30;3.30;;;;;;;3.84;100.00;99989.47;5071427;28;20277;-77
2022/02/01 03:54:18;;;;;;;7.25;3.60;;;;;;;3.85;100.00;99994.75;5071747;28;20285;-77
2022/02/01 03:56:45;;;;;;;6.75;3.67;;;;;;;4.00;100.00;100008.59;5071704;28;20288;-76
2022/02/01 03:59:11;;;;;;;12.00;3.67;;;;;;;4.14;100.00;100012.69;5071343;28;20286;-77
2022/02/01 04:01:39;;;;;;;9.20;4.00;;;;;;;3.99;100.00;100001.53;5072141;28;20198;-77
2022/02/01 04:04:07;;;;;;;6.53;3.70;;;;;;;3.85;100.00;100007.22;5071477;28;20637;-76
2022/02/01 04:06:33;;;;;;;14.48;4.03;;;;;;;3.82;100.00;99999.28;5071659;28;20281;-76
2022/02/01 04:09:00;;;;;;;8.65;3.78;;;;;;;3.95;100.00;100008.72;5071037;28;20285;-76
2022/02/01 04:11:27;;;;;;;15.57;4.00;;;;;;;3.91;100.00;100001.72;5072063;28;20641;-76
2022/02/01 04:13:53;;;;;;;21.23;4.35;;;;;;;3.93;100.00;100005.22;5070958;28;20316;-76
2022/02/01 04:16:20;;;;;;;7.88;3.92;;;;;;;3.85;100.00;99999.22;5071642;28;20619;-77
2022/02/01 04:18:48;;;;;;;7.65;3.67;;;;;;;3.88;99.67;100009.78;5071365;28;20193;-76
2022/02/01 04:21:14;;;;;;;10.32;3.72;;;;;;;3.75;100.00;99996.78;5071170;28;20213;-76
2022/02/01 04:23:41;;;;;;;12.57;4.63;;;;;;;3.80;100.00;99991.34;5071131;28;20195;-76
2022/02/01 04:26:08;;;;;;;12.98;3.70;;;;;;;3.93;100.00;99986.56;5071076;28;20206;-76
2022/02/01 04:28:34;;;;;;;15.77;3.80;;;;;;;3.88;100.00;99981.34;5071536;28;20641;-77
2022/02/01 04:31:01;;;;;;;12.70;4.03;;;;;;;3.87;100.00;99987.59;5070764;28;20183;-77
2022/02/01 04:33:27;;;;;;;9.48;4.15;;;;;;;3.79;100.00;99994.91;5071425;28;20628;-77
2022/02/01 04:35:56;;;;;;;12.40;4.03;;;;;;;3.91;100.00;100002.59;5071303;28;20188;-76
2022/02/01 04:38:22;;;;;;;12.77;3.50;;;;;;;3.81;100.00;99998.41;5071516;28;20268;-78
2022/02/01 04:40:52;;;;;;;6.43;3.17;;;;;;;3.87;100.00;99997.41;5070566;28;20692;-76
2022/02/01 04:43:19;;;;;;;12.35;3.15;;;;;;;3.88;99.75;100007.13;5071269;28;20190;-77
2022/02/01 04:45:46;;;;;;;11.63;4.25;;;;;;;3.90;99.23;100007.97;5071096;28;20356;-77
2022/02/01 04:48:13;;;;;;;10.02;4.70;;;;;;;3.89;99.29;99996.44;5071154;28;20287;-76
2022/02/01 04:50:39;;;;;;;15.48;5.32;;;;;;;3.80;100.00;99993.09;5070840;28;20262;-77
2022/02/01 04:53:07;;;;;;;11.15;4.88;;;;;;;3.82;100.00;99994.84;5071428;28;20615;-77
2022/02/01 04:55:48;;;;;;;13.05;4.85;;;;;;;3.69;100.00;99998.72;5070479;28;20291;-77
2022/02/01 04:58:15;;;;;;;10.75;4.05;;;;;;;3.64;100.00;99995.25;5065525;28;20555;-77
2022/02/01 05:00:41;;;;;;;10.68;5.45;;;;;;;3.55;100.00;99991.91;5071390;28;20284;-77
2022/02/01 05:03:08;;;;;;;11.05;3.90;;;;;;;3.55;100.00;99996.38;5071479;28;20193;-77
2022/02/01 05:05:35;;;;;;;7.07;3.90;;;;;;;3.59;100.00;100000.69;5071539;28;20201;-77
2022/02/01 05:08:04;;;;;;;13.60;4.55;;;;;;;3.63;100.00;100004.16;5072224;28;20213;-76
2022/02/01 05:10:34;;;;;;;13.35;4.25;;;;;;;3.63;100.00;100009.50;5074525;28;20196;-77
2022/02/01 05:13:22;;;;;;;13.80;4.65;;;;;;;3.56;100.00;100016.75;5079274;28;20245;-76
2022/02/01 05:15:50;;;;;;;11.75;4.15;;;;;;;3.48;100.00;100011.59;5071402;28;20201;-77
2022/02/01 05:18:21;;;;;;;14.93;4.50;;;;;;;3.54;100.00;100011.44;5071326;28;20202;-76
2022/02/01 05:20:52;;;;;;;15.60;4.47;;;;;;;3.53;100.00;100014.16;5074503;28;20185;-77
2022/02/01 05:23:21;;;;;;;11.65;4.10;;;;;;;3.45;100.00;100032.94;5075207;28;20564;-77
2022/02/01 05:25:50;;;;;;;9.30;4.00;;;;;;;3.48;100.00;100029.34;5074756;28;20336;-76
2022/02/01 05:28:16;;;;;;;15.57;3.83;;;;;;;3.43;100.00;100032.09;5073818;28;20182;-76
2022/02/01 05:30:43;;;;;;;13.57;4.30;;;;;;;3.43;100.00;100025.91;5074252;28;20196;-77
2022/02/01 05:33:09;;;;;;;12.43;4.40;;;;;;;3.51;100.00;100016.84;5074550;28;20320;-76
2022/02/01 05:35:36;;;;;;;14.75;4.05;;;;;;;3.47;100.00;100009.84;5074908;28;20285;-77
2022/02/01 05:38:03;;;;;;;11.88;3.75;;;;;;;3.47;100.00;100008.97;5074431;28;20190;-78
2022/02/01 05:40:30;;;;;;;19.70;5.15;;;;;;;3.44;100.00;100007.25;5074329;28;20207;-78
2022/02/01 05:43:01;;;;;;;14.73;4.13;;;;;;;3.49;100.00;100010.69;5074403;28;20194;-78
2022/02/01 05:45:29;;;;;;;13.40;3.90;;;;;;;3.46;100.00;99999.22;5074664;28;20421;-78
2022/02/01 05:47:56;;;;;;;8.45;4.00;;;;;;;3.45;100.00;100003.66;5074485;28;20288;-77
2022/02/01 05:50:23;;;;;;;11.13;3.45;;;;;;;3.45;100.00;100014.31;5074435;28;20631;-77
2022/02/01 05:52:50;;;;;;;8.98;3.13;;;;;;;3.40;100.00;100037.50;5074570;28;20284;-77
2022/02/01 05:55:17;;;;;;;10.13;3.22;;;;;;;3.46;100.00;100026.75;5074268;28;20300;-77
2022/02/01 05:57:44;;;;;;;9.35;3.25;;;;;;;3.49;100.00;100050.63;5073868;28;20197;-77
2022/02/01 06:00:16;;;;;;;12.95;4.32;;;;;;;3.50;100.00;100044.38;5074010;28;20190;-77
2022/02/01 06:02:43;;;;;;;10.90;3.55;;;;;;;3.44;100.00;100060.50;5074525;28;20633;-77
2022/02/01 06:05:10;;;;;;;16.30;4.75;;;;;;;3.50;100.00;100051.50;5072703;28;20284;-79
2022/02/01 06:07:37;;;;;;;10.77;3.88;;;;;;;3.50;100.00;100052.34;5073220;28;20185;-79
2022/02/01 06:10:03;;;;;;;10.45;3.30;;;;;;;3.44;100.00;100043.66;5073723;28;20612;-80
2022/02/01 06:12:39;;;;;;;11.73;3.65;;;;;;;3.44;100.00;100049.84;5071708;28;20204;-79
2022/02/01 06:15:07;;;;;;;4.63;3.53;;;;;;;3.48;100.00;100042.66;5071635;28;20223;-79
2022/02/01 06:17:35;;;;;;;12.05;4.05;;;;;;;3.41;100.00;100031.25;5073008;28;20643;-80
2022/02/01 06:20:02;;;;;;;9.95;3.63;;;;;;;3.39;100.00;100046.38;5073379;28;20196;-80
2022/02/01 06:22:29;;;;;;;14.68;3.30;;;;;;;3.36;100.00;100054.44;5073084;28;20280;-80
2022/02/01 06:24:56;;;;;;;13.57;4.05;;;;;;;3.37;100.00;100050.00;5073250;28;20187;-78
2022/02/01 06:27:23;;;;;;;15.65;3.38;;;;;;;3.41;100.00;100062.34;5073134;28;20206;-79
2022/02/01 06:29:50;;;;;;;13.77;3.65;;;;;;;3.42;100.00;100053.47;5073340;28;20213;-79
2022/02/01 06:32:17;;;;;;;8.45;3.60;;;;;;;3.45;100.00;100048.94;5072577;28;20269;-80
2022/02/01 06:34:45;;;;;;;14.25;4.25;;;;;;;3.53;100.00;100049.66;5073456;28;20229;-77
2022/02/01 06:37:13;;;;;;;12.27;3.30;;;;;;;3.45;100.00;100059.56;5072757;28;20192;-79
2022/02/01 06:39:40;;;;;;;6.78;2.58;;;;;;;3.43;100.00;100053.41;5072410;28;20196;-79
2022/02/01 06:42:08;;;;;;;15.38;4.38;;;;;;;3.45;100.00;100056.03;5073363;28;20623;-79
2022/02/01 06:44:38;;;;;;;14.65;3.67;;;;;;;3.41;100.00;100060.53;5072882;28;20227;-79
2022/02/01 06:47:08;;;;;;;9.65;3.70;;;;;;;3.52;100.00;100055.88;5072585;28;20193;-78
2022/02/01 06:49:34;;;;;;;9.32;3.58;;;;;;;3.48;100.00;100059.53;5072651;28;20193;-78
2022/02/01 06:52:04;;;;;;;5.03;2.40;;;;;;;3.51;100.00;100051.47;5072883;28;20546;-78
2022/02/01 06:54:33;;;;;;;7.55;3.15;;;;;;;3.53;100.00;100059.44;5071233;28;20213;-79
2022/02/01 06:56:59;;;;;;;7.07;3.28;;;;;;;3.69;100.00;100050.19;5072552;28;20229;-78
2022/02/01 06:59:26;;;;;;;9.80;2.92;;;;;;;3.72;100.00;100049.22;5071846;28;20197;-79
2022/02/01 07:01:53;;;;;;;11.23;3.42;;;;;;;3.78;100.00;100057.09;5072218;28;20286;-80
2022/02/01 07:04:36;;;;;;;8.40;3.55;;;;;;;3.87;99.54;100059.53;5072749;28;20197;-77
2022/02/01 07:07:11;;;;;;;6.60;3.05;;;;;;;3.84;98.82;100043.59;5070564;28;20200;-77
2022/02/01 07:09:37;;;;;;;10.50;3.53;;;;;;;3.74;97.74;100039.41;5072797;28;20698;-77
2022/02/01 07:12:05;;;;;;;8.35;2.85;;;;;;;3.77;97.87;100039.34;5072379;28;21010;-76
2022/02/01 07:14:31;;;;;;;7.43;2.88;;;;;;;3.78;96.77;100034.88;5072504;28;20293;-76
2022/02/01 07:16:58;;;;;;;11.93;3.00;;;;;;;3.58;97.24;100049.53;5071983;28;20583;-77
2022/02/01 07:19:25;;;;;;;11.00;3.00;;;;;;;3.55;97.60;100034.50;5072555;28;20188;-77
2022/02/01 07:21:51;;;;;;;7.78;3.33;;;;;;;3.49;98.04;100037.31;5072146;28;20189;-77
2022/02/01 07:24:27;;;;;;;12.77;2.88;;;;;;;3.60;97.67;100049.53;5071701;28;20692;-76
2022/02/01 07:26:57;;;;;;;7.43;2.80;;;;;;;3.51;96.38;100050.59;5072905;28;20188;-76
2022/02/01 07:29:24;;;;;;;6.50;2.80;;;;;;;3.57;96.24;100042.44;5069280;28;20292;-75
2022/02/01 07:31:51;;;;;;;9.98;3.42;;;;;;;3.60;94.51;100036.22;5069985;28;20230;-77
2022/02/01 07:34:17;;;;;;;8.88;3.00;;;;;;;3.74;93.96;100045.63;5069643;28;20290;-77
2022/02/01 07:36:45;;;;;;;8.50;3.45;;;;;;;3.76;93.96;100043.78;5071220;28;20195;-77
2022/02/01 07:39:11;;;;;;;10.68;3.22;;;;;;;3.71;91.73;100039.50;5071302;28;20256;-77
2022/02/01 07:41:39;;;;;;;6.75;3.30;;;;;;;3.69;91.16;100038.66;5070382;28;20210;-79
2022/02/01 07:44:06;;;;;;;6.63;2.92;;;;;;;3.81;90.48;100022.38;5070946;28;20193;-78
2022/02/01 07:46:34;;;;;;;8.52;3.55;;;;;;;3.77;91.47;100034.00;5071538;28;20213;-77
2022/02/01 07:49:00;;;;;;;8.20;3.30;;;;;;;3.78;89.88;100026.88;5071413;28;20202;-78
2022/02/01 07:51:27;;;;;;;6.63;3.00;;;;;;;3.70;90.46;100027.06;5071854;28;20196;-77
2022/02/01 07:53:54;;;;;;;7.82;2.83;;;;;;;3.67;91.02;100022.69;5071025;28;20205;-76
2022/02/01 07:56:20;;;;;;;6.03;3.15;;;;;;;3.84;90.44;100026.75;5071210;28;20282;-76
2022/02/01 07:58:48;;;;;;;11.50;4.18;;;;;;;3.76;90.04;100021.63;5060991;28;20685;-77
2022/02/01 08:01:15;;;;;;;10.82;4.75;;;;;;;3.84;90.18;100030.28;5071894;28;20688;-76
2022/02/01 08:03:42;;;;;;;7.35;3.20;;;;;;;3.76;89.16;100030.47;5071334;28;20227;-78
2022/02/01 08:06:08;;;;;;;6.85;3.05;;;;;;;3.76;90.31;100021.63;5071273;28;20275;-78
2022/02/01 08:08:35;;;;;;;9.52;3.30;;;;;;;3.82;90.15;100032.13;5070921;28;20278;-78
2022/02/01 08:11:03;;;;;;;7.78;3.05;;;;;;;3.79;89.53;100010.00;5071996;28;20226;-78
2022/02/01 08:19:06;;;;;;;7.63;2.90;;;;;;;3.90;87.66;100027.47;5072202;28;20638;-77
2022/02/01 08:21:44;;;;;;;10.25;3.22;;;;;;;3.79;88.58;100016.19;5072015;28;20242;-78
2022/02/01 08:24:11;;;;;;;10.75;5.15;;;;;;;4.06;87.52;100000.47;5073743;28;20196;-76
2022/02/01 08:26:38;;;;;;;12.30;3.50;;;;;;;4.04;87.29;100010.28;5071684;28;20555;-77
2022/02/01 08:29:05;;;;;;;12.20;3.47;;;;;;;4.19;87.11;100007.25;5071642;28;20277;-77
2022/02/01 08:31:33;;;;;;;7.80;3.35;;;;;;;4.37;84.92;100004.09;5067280;28;20230;-77
2022/02/01 08:34:00;;;;;;;10.35;3.03;;;;;;;4.49;83.88;99994.03;5071383;28;20224;-78
2022/02/01 08:36:27;;;;;;;9.00;3.42;;;;;;;4.50;83.78;99988.66;5069132;28;20234;-78
2022/02/01 08:38:55;;;;;;;8.50;4.43;;;;;;;4.70;82.41;99984.53;5069758;28;20198;-78
2022/02/01 08:41:22;;;;;;;7.90;3.58;;;;;;;4.52;82.43;99985.94;5071836;28;20196;-78
2022/02/01 08:43:48;;;;;;;6.97;3.10;;;;;;;4.63;82.67;99990.97;5071037;28;20203;-77
2022/02/01 08:46:16;;;;;;;13.82;4.63;;;;;;;4.77;80.95;99997.69;5071196;28;20283;-78
2022/02/01 08:48:44;;;;;;;9.55;3.70;;;;;;;4.66;81.93;99990.88;5070671;28;20287;-78
2022/02/01 08:51:12;;;;;;;5.85;3.00;;;;;;;4.87;82.11;99992.97;5071383;28;20247;-78
2022/02/01 08:53:47;;;;;;;8.43;3.42;;;;;;;4.96;80.26;100008.69;5072235;28;20207;-78
2022/02/01 08:57:21;;;;;;;12.60;4.82;;;;;;;4.69;81.82;99996.16;5075243;28;20198;-77
2022/02/01 08:59:11;;;;;;;5.40;3.20;;;;;;;4.57;82.74;99992.03;5074888;28;20632;-77
2022/02/01 09:01:38;;;;;;;9.90;2.97;;;;;;;4.76;82.33;100006.59;5076052;28;20225;-78
2022/02/01 09:04:06;;;;;;;8.07;3.15;;;;;;;4.83;82.10;100006.44;5075292;28;20690;-77
2022/02/01 09:06:34;;;;;;;11.90;3.35;;;;;;;4.70;82.73;100013.88;5075332;28;20222;-77
2022/02/01 09:09:00;;;;;;;7.25;3.53;;;;;;;4.71;83.54;100002.31;5075286;28;20192;-78
2022/02/01 09:11:27;;;;;;;11.35;3.15;;;;;;;4.43;85.05;99994.16;5075958;28;20191;-76
2022/02/01 09:13:53;;;;;;;9.95;3.72;;;;;;;4.31;87.23;99988.25;5075484;28;20574;-76
2022/02/01 09:16:21;;;;;;;11.95;4.15;;;;;;;4.44;88.95;99993.28;5076515;28;20199;-78
2022/02/01 09:18:48;;;;;;;11.52;3.00;;;;;;;4.43;89.69;99997.72;5075686;28;20305;-77
2022/02/01 09:21:18;;;;;;;8.27;3.17;;;;;;;4.40;92.35;100003.13;5075606;28;20184;-76
2022/02/01 09:23:44;;;;;;;12.55;3.95;;;;;;;4.28;95.80;99977.69;5075518;28;20207;-77
2022/02/01 09:26:11;;;;;;;10.40;3.67;;;;;;;4.22;97.88;99977.81;5074664;28;20210;-77
2022/02/01 09:28:38;;;;;;;11.27;3.80;;;;;;;3.97;100.00;99982.91;5075446;28;20191;-79
2022/02/01 09:31:05;;;;;;;6.13;3.95;;;;;;;4.10;100.00;99979.03;5075516;28;20219;-79
2022/02/01 09:33:33;;;;;;;7.63;3.47;;;;;;;4.38;100.00;99976.50;5075778;28;20196;-81
2022/02/01 09:35:59;;;;;;;9.13;3.47;;;;;;;4.39;100.00;99975.59;5076373;28;20296;-83
2022/02/01 09:38:30;;;;;;;10.05;3.90;;;;;;;4.35;100.00;99973.94;5075739;28;20557;-80
2022/02/01 09:40:58;;;;;;;9.60;3.97;;;;;;;4.36;100.00;99975.69;5075872;28;20204;-82
2022/02/01 09:43:24;;;;;;;5.35;3.30;;;;;;;4.51;100.00;99978.84;5076825;28;20292;-80
2022/02/01 09:45:53;;;;;;;12.20;4.53;;;;;;;4.49;100.00;99975.34;5075791;28;20333;-80
2022/02/01 09:48:20;;;;;;;12.85;4.60;;;;;;;4.68;100.00;99976.59;5075503;28;20641;-80
2022/02/01 09:50:47;;;;;;;14.15;5.63;;;;;;;4.72;100.00;99972.91;5076196;28;20230;-80
2022/02/01 09:53:14;;;;;;;11.73;4.20;;;;;;;4.26;100.00;99966.19;5074954;28;20279;-81
2022/02/01 09:55:42;;;;;;;8.70;3.75;;;;;;;4.22;100.00;99972.50;5075736;28;20311;-80
2022/02/01 09:58:11;;;;;;;7.63;3.88;;;;;;;4.21;100.00;99965.44;5076651;28;20189;-80
2022/02/01 10:00:44;;;;;;;10.68;3.50;;;;;;;4.03;100.00;99968.56;5075653;28;20203;-81
2022/02/01 10:03:16;;;;;;;11.27;4.30;;;;;;;4.18;100.00;99966.38;5075279;28;20254;-82
2022/02/01 10:05:43;;;;;;;13.10;4.90;;;;;;;4.14;100.00;99966.50;5074650;28;20197;-80
2022/02/01 10:08:09;;;;;;;7.97;3.90;;;;;;;4.28;100.00;99961.69;5075798;28;20189;-82
2022/02/01 10:10:36;;;;;;;6.55;3.80;;;;;;;4.33;100.00;99959.75;5074662;28;20621;-81
2022/02/01 10:13:12;;;;;;;8.55;4.85;;;;;;;4.55;100.00;99952.06;5077077;28;20688;-82
2022/02/01 10:15:39;;;;;;;10.48;3.85;;;;;;;4.16;100.00;99959.31;5075496;28;20211;-82
2022/02/01 10:18:08;;;;;;;9.40;3.75;;;;;;;4.18;100.00;99962.81;5076559;28;20219;-81
2022/02/01 10:20:42;;;;;;;10.48;4.45;;;;;;;4.24;100.00;99956.47;5074805;28;20213;-84
2022/02/01 10:23:20;;;;;;;6.50;3.75;;;;;;;4.12;100.00;99947.03;5075649;28;20278;-82
2022/02/01 10:26:05;;;;;;;7.13;3.85;;;;;;;4.29;100.00;99942.09;5075321;28;20184;-84
2022/02/01 10:28:59;;;;;;;8.07;4.20;;;;;;;4.39;100.00;99924.94;5072314;28;20205;-85
2022/02/01 10:31:31;;;;;;;11.60;4.90;;;;;;;4.44;100.00;99916.81;5064018;28;20296;-80
2022/02/01 10:34:04;;;;;;;8.75;4.15;;;;;;;4.44;100.00;99919.47;5063491;28;20190;-83
2022/02/01 10:36:39;;;;;;;7.40;4.45;;;;;;;4.21;100.00;99909.47;5064691;28;20247;-81
2022/02/01 10:39:17;;;;;;;5.88;3.60;;;;;;;4.37;100.00;99897.44;5061920;28;20223;-81
2022/02/01 10:41:56;;;;;;;6.22;3.58;;;;;;;4.54;100.00;99896.09;5063133;28;20592;-81
2022/02/01 10:44:24;;;;;;;5.78;3.60;;;;;;;4.34;100.00;99892.22;5061782;28;20232;-80
2022/02/01 10:46:52;;;;;;;7.15;3.67;;;;;;;4.51;100.00;99880.19;5071001;28;20217;-82
2022/02/01 10:49:27;;;;;;;7.75;3.72;;;;;;;4.09;100.00;99884.03;5072519;28;20210;-82
2022/02/01 10:52:01;;;;;;;6.07;4.47;;;;;;;3.88;100.00;99877.44;5070296;28;20203;-84
2022/02/01 10:54:27;;;;;;;6.57;4.53;;;;;;;4.10;100.00;99863.56;5072301;28;20598;-84
2022/02/01 10:56:54;;;;;;;4.85;3.38;;;;;;;4.22;100.00;99862.34;5064257;28;20199;-84
2022/02/01 10:59:23;;;;;;;4.97;3.30;;;;;;;4.03;100.00;99854.00;5062829;28;20200;-84
2022/02/01 11:01:52;;;;;;;4.30;3.25;;;;;;;4.17;100.00;99844.69;5072463;28;20297;-81
2022/02/01 11:04:21;;;;;;;5.70;4.10;;;;;;;4.14;100.00;99834.13;5064662;28;20193;-81
2022/02/01 11:06:50;;;;;;;6.10;5.05;;;;;;;4.45;100.00;99835.88;5062867;28;20195;-81
2022/02/01 11:09:18;;;;;;;7.35;3.60;;;;;;;4.56;100.00;99822.25;5066272;28;20507;-81
2022/02/01 11:11:52;;;;;;;8.15;4.03;;;;;;;4.58;100.00;99831.06;5067944;28;20560;-81
2022/02/01 11:14:20;;;;;;;4.13;3.30;;;;;;;4.21;100.00;99821.50;5070803;28;20689;-81
2022/02/01 11:16:47;;;;;;;7.15;5.30;;;;;;;4.32;100.00;99814.06;5061092;28;20188;-82
2022/02/01 11:19:15;;;;;;;7.18;4.05;;;;;;;4.35;100.00;99815.75;5070213;28;20181;-80
2022/02/01 11:21:47;;;;;;;7.82;4.35;;;;;;;4.32;100.00;99808.72;5072603;28;20291;-82
2022/02/01 11:24:31;;;;;;;5.28;3.67;;;;;;;4.33;100.00;99813.13;5072384;28;20196;-80
2022/02/01 11:27:13;;;;;;;7.38;4.00;;;;;;;4.29;100.00;99810.59;5073078;28;20202;-80
2022/02/01 11:30:12;;;;;;;5.32;3.80;;;;;;;4.28;100.00;99806.22;5076969;28;20621;-81
2022/02/01 11:32:48;;;;;;;6.40;3.40;;;;;;;4.42;100.00;99803.13;5088342;28;20255;-81
2022/02/01 11:35:22;;;;;;;8.35;4.40;;;;;;;4.52;100.00;99792.16;5073374;28;20310;-81
2022/02/01 11:37:51;;;;;;;9.40;4.00;;;;;;;4.38;100.00;99763.22;5070288;28;20215;-81
2022/02/01 11:40:20;;;;;;;5.25;4.18;;;;;;;4.56;100.00;99756.44;5072733;28;20234;-82
2022/02/01 11:43:00;;;;;;;4.53;3.05;;;;;;;4.57;100.00;99747.53;5073108;28;20231;-82
2022/02/01 11:45:30;;;;;;;5.43;3.58;;;;;;;4.53;100.00;99763.69;5073848;28;20202;-80
2022/02/01 11:47:57;;;;;;;6.07;3.58;;;;;;;4.38;100.00;99757.00;5073171;28;20211;-82
2022/02/01 11:50:27;;;;;;;6.63;3.63;;;;;;;4.48;100.00;99750.50;5072382;28;20203;-82
2022/02/01 11:52:55;;;;;;;6.43;4.30;;;;;;;4.72;100.00;99748.81;5071479;28;20622;-82
2022/02/01 11:55:28;;;;;;;4.07;3.17;;;;;;;4.36;100.00;99725.09;5072140;28;20230;-82
2022/02/01 11:58:00;;;;;;;4.45;3.40;;;;;;;4.56;100.00;99704.91;5071802;28;20194;-82
2022/02/01 12:00:28;;;;;;;7.15;3.75;;;;;;;4.46;100.00;99706.13;5068049;28;20217;-86
2022/02/01 12:02:57;;;;;;;9.38;3.63;;;;;;;4.57;100.00;99696.00;5062865;28;20196;-83
2022/02/01 12:05:31;;;;;;;4.65;3.50;;;;;;;4.63;100.00;99686.91;5063987;28;20197;-84
2022/02/01 12:08:06;;;;;;;8.90;3.63;;;;;;;4.55;100.00;99690.72;5062354;28;20278;-83
2022/02/01 12:10:34;;;;;;;4.40;3.45;;;;;;;4.31;100.00;99670.16;5062354;28;20684;-82
2022/02/01 12:13:02;;;;;;;8.50;3.67;;;;;;;4.41;100.00;99668.06;5061527;28;20290;-82
2022/02/01 12:15:31;;;;;;;5.97;3.28;;;;;;;4.53;100.00;99657.00;5066710;28;20640;-83
2022/02/01 12:18:06;;;;;;;4.10;3.15;;;;;;;4.63;100.00;99662.91;5063848;28;20381;-82
2022/02/01 12:20:36;;;;;;;5.50;3.35;;;;;;;4.65;100.00;99642.41;5063866;28;20286;-82
2022/02/01 12:23:24;;;;;;;8.95;3.90;;;;;;;4.69;100.00;99647.56;5060437;28;20193;-81
2022/02/01 12:25:52;;;;;;;6.20;3.95;;;;;;;4.53;100.00;99641.00;5062856;28;20296;-80
2022/02/01 12:28:21;;;;;;;3.70;2.78;;;;;;;4.50;100.00;99631.31;5066426;28;20205;-82
2022/02/01 12:30:49;;;;;;;4.25;2.80;;;;;;;4.49;100.00;99624.22;5056458;28;20198;-82
2022/02/01 12:33:19;;;;;;;4.65;2.78;;;;;;;4.45;100.00;99617.25;5058632;28;20316;-82